Time;durP1;ratioP1;P1;durP2;ratioP2;P2;SDS_P1;SDS_P2;PMS_P1;PMS_P2;Temp;Humidity;BMP_temperature;BMP_pressure;BME280_temperature;BME280_humidity;BME280_pressure;Samples;Min_cycle;Max_cycle;Signal;HPM_P1;HPM_P2
2021/09/03 00:02:20;;;;;;;;;;;23.40;53.30;;;;;;4301070;33;20466;-39
2021/09/03 00:04:46;;;;;;;;;;;23.50;53.00;;;;;;4313485;33;19989;-38
2021/09/03 00:07:12;;;;;;;;;;;23.50;52.70;;;;;;4313032;33;19974;-39
2021/09/03 00:09:38;;;;;;;;;;;23.60;52.50;;;;;;4313369;33;20054;-38
2021/09/03 00:12:05;;;;;;;;;;;23.60;52.40;;;;;;4320123;33;20136;-38
2021/09/03 00:14:32;;;;;;;;;;;23.70;52.20;;;;;;4328216;33;20056;-38
2021/09/03 00:16:59;;;;;;;;;;;23.70;52.20;;;;;;4327642;33;19983;-38
2021/09/03 00:19:25;;;;;;;;;;;23.70;52.20;;;;;;4327512;33;19967;-38
2021/09/03 00:21:52;;;;;;;;;;;23.70;52.10;;;;;;4327631;33;19986;-38
2021/09/03 00:24:19;;;;;;;;;;;23.70;52.00;;;;;;4327606;33;19971;-38
2021/09/03 00:26:46;;;;;;;;;;;23.70;51.80;;;;;;4328086;33;19990;-38
2021/09/03 00:29:12;;;;;;;;;;;23.70;51.70;;;;;;4341592;33;19974;-39
2021/09/03 00:31:38;;;;;;;;;;;23.70;51.60;;;;;;4331193;33;19966;-39
2021/09/03 00:34:04;;;;;;;;;;;23.70;51.60;;;;;;4344979;33;20442;-38
2021/09/03 00:36:30;;;;;;;;;;;23.60;51.60;;;;;;4312412;33;19994;-38
2021/09/03 00:38:57;;;;;;;;;;;23.60;51.90;;;;;;4312847;33;20077;-38
2021/09/03 00:41:23;;;;;;;;;;;23.60;52.10;;;;;;4312736;33;19967;-39
2021/09/03 00:43:49;;;;;;;;;;;23.60;52.10;;;;;;4312926;33;19971;-38
2021/09/03 00:46:15;;;;;;;;;;;23.60;52.10;;;;;;4313019;33;19967;-38
2021/09/03 00:48:41;;;;;;;;;;;23.70;52.00;;;;;;4313050;33;20027;-38
2021/09/03 00:51:07;;;;;;;;;;;23.70;51.90;;;;;;4297829;33;20327;-38
2021/09/03 00:53:34;;;;;;;;;;;23.80;51.80;;;;;;4298177;33;19979;-38
2021/09/03 00:56:00;;;;;;;;;;;23.80;51.70;;;;;;4297917;33;19987;-38
2021/09/03 00:58:27;;;;;;;;;;;23.90;51.60;;;;;;4297876;33;19971;-38
2021/09/03 01:00:53;;;;;;;;;;;23.90;51.40;;;;;;4298144;33;20073;-39
2021/09/03 01:03:19;;;;;;;;;;;23.90;51.30;;;;;;4297843;33;20066;-38
2021/09/03 01:05:45;;;;;;;;;;;24.00;51.20;;;;;;4297995;33;20090;-39
2021/09/03 01:08:12;;;;;;;;;;;24.00;51.10;;;;;;4332374;33;20087;-39
2021/09/03 01:10:38;;;;;;;;;;;24.00;50.90;;;;;;4341588;33;20512;-37
2021/09/03 01:13:05;;;;;;;;;;;24.00;50.90;;;;;;4329276;33;20040;-38
2021/09/03 01:15:31;;;;;;;;;;;24.10;50.90;;;;;;4341777;33;19990;-38
2021/09/03 01:17:58;;;;;;;;;;;24.10;50.80;;;;;;4329744;33;20091;-39
2021/09/03 01:20:24;;;;;;;;;;;24.10;50.80;;;;;;4329477;33;20537;-39
2021/09/03 01:22:50;;;;;;;;;;;24.10;50.70;;;;;;4341660;33;20018;-38
2021/09/03 01:25:16;;;;;;;;;;;24.10;50.60;;;;;;4341583;33;19967;-39
2021/09/03 01:27:43;;;;;;;;;;;24.20;50.40;;;;;;4343875;32;19985;-38
2021/09/03 01:30:12;;;;;;;;;;;24.20;50.40;;;;;;4359181;32;19993;-39
2021/09/03 01:32:38;;;;;;;;;;;24.20;50.40;;;;;;4345218;32;19965;-39
2021/09/03 01:35:05;;;;;;;;;;;24.20;50.20;;;;;;4359017;32;20004;-38
2021/09/03 01:37:31;;;;;;;;;;;24.20;50.10;;;;;;4358962;32;20042;-38
2021/09/03 01:39:57;;;;;;;;;;;24.20;50.10;;;;;;4340718;33;20410;-39
2021/09/03 01:42:23;;;;;;;;;;;24.10;50.20;;;;;;4335958;32;19979;-38
2021/09/03 01:44:50;;;;;;;;;;;24.00;50.30;;;;;;4326771;33;20478;-39
2021/09/03 01:47:16;;;;;;;;;;;24.00;50.40;;;;;;4326971;33;20058;-38
2021/09/03 01:49:42;;;;;;;;;;;23.80;50.60;;;;;;4326447;33;19982;-38
2021/09/03 01:52:08;;;;;;;;;;;23.70;50.80;;;;;;4313667;33;20365;-38
2021/09/03 01:54:34;;;;;;;;;;;23.60;51.10;;;;;;4326757;33;19978;-38
2021/09/03 01:57:00;;;;;;;;;;;23.50;51.30;;;;;;4326114;33;20031;-39
2021/09/03 01:59:27;;;;;;;;;;;23.40;51.50;;;;;;4326267;33;20047;-39
2021/09/03 02:01:53;;;;;;;;;;;23.30;51.90;;;;;;4326328;33;19967;-39
2021/09/03 02:04:19;;;;;;;;;;;23.30;52.20;;;;;;4314022;33;19982;-38
2021/09/03 02:06:45;;;;;;;;;;;23.20;52.40;;;;;;4326626;33;20148;-39
2021/09/03 02:09:12;;;;;;;;;;;23.20;52.50;;;;;;4326050;33;20084;-39
2021/09/03 02:11:38;;;;;;;;;;;23.10;52.50;;;;;;4330402;33;19974;-39
2021/09/03 02:14:04;;;;;;;;;;;23.10;52.50;;;;;;4341228;33;20408;-39
2021/09/03 02:16:31;;;;;;;;;;;23.10;52.70;;;;;;4341128;33;20360;-39
2021/09/03 02:18:58;;;;;;;;;;;23.00;52.70;;;;;;4343530;32;19970;-38
2021/09/03 02:21:25;;;;;;;;;;;23.00;52.80;;;;;;4340516;33;20587;-39
2021/09/03 02:23:51;;;;;;;;;;;23.00;52.90;;;;;;4341323;33;19986;-39
2021/09/03 02:26:17;;;;;;;;;;;23.10;53.10;;;;;;4341337;33;20383;-39
2021/09/03 02:28:43;;;;;;;;;;;23.10;53.00;;;;;;4341027;33;19998;-39
2021/09/03 02:31:09;;;;;;;;;;;23.30;53.10;;;;;;4341272;33;20415;-39
2021/09/03 02:33:35;;;;;;;;;;;23.30;52.70;;;;;;4340643;33;20033;-38
2021/09/03 02:36:02;;;;;;;;;;;23.40;52.60;;;;;;4340817;33;20009;-38
2021/09/03 02:38:28;;;;;;;;;;;23.60;52.30;;;;;;4328716;33;19977;-38
2021/09/03 02:40:54;;;;;;;;;;;23.60;52.20;;;;;;4341096;33;19983;-38
2021/09/03 02:43:20;;;;;;;;;;;23.70;51.90;;;;;;4330070;33;19970;-39
2021/09/03 02:45:47;;;;;;;;;;;23.60;51.60;;;;;;4325889;33;19971;-38
2021/09/03 02:48:13;;;;;;;;;;;23.50;51.60;;;;;;4314126;33;20075;-38
2021/09/03 02:50:39;;;;;;;;;;;23.50;51.80;;;;;;4326089;33;19963;-39
2021/09/03 02:53:05;;;;;;;;;;;23.40;52.00;;;;;;4326217;33;20056;-38
2021/09/03 02:55:31;;;;;;;;;;;23.40;52.10;;;;;;4328359;33;19971;-39
2021/09/03 02:57:57;;;;;;;;;;;23.40;52.10;;;;;;4329196;33;20069;-40
2021/09/03 03:00:24;;;;;;;;;;;23.40;52.20;;;;;;4331145;33;20453;-39
2021/09/03 03:02:52;;;;;;;;;;;23.40;52.20;;;;;;4329538;33;20031;-40
2021/09/03 03:05:20;;;;;;;;;;;23.30;52.30;;;;;;4329614;33;19998;-39
2021/09/03 03:07:46;;;;;;;;;;;23.30;52.40;;;;;;4331342;33;20044;-39
2021/09/03 03:10:13;;;;;;;;;;;23.30;52.50;;;;;;4331095;33;19978;-39
2021/09/03 03:12:39;;;;;;;;;;;23.30;52.50;;;;;;4341642;33;19959;-39
2021/09/03 03:15:06;;;;;;;;;;;23.20;52.50;;;;;;4332283;33;20352;-40
2021/09/03 03:17:32;;;;;;;;;;;23.30;52.60;;;;;;4332217;33;20023;-39
2021/09/03 03:19:58;;;;;;;;;;;23.30;52.50;;;;;;4346406;33;20392;-40
2021/09/03 03:22:25;;;;;;;;;;;23.40;52.50;;;;;;4345799;33;20066;-39
2021/09/03 03:24:51;;;;;;;;;;;23.40;52.40;;;;;;4331925;33;19975;-40
2021/09/03 03:27:17;;;;;;;;;;;23.40;52.40;;;;;;4331986;33;20143;-39
2021/09/03 03:29:43;;;;;;;;;;;23.40;52.30;;;;;;4345884;33;19978;-39
2021/09/03 03:32:09;;;;;;;;;;;23.40;52.30;;;;;;4345330;33;19959;-39
2021/09/03 03:34:36;;;;;;;;;;;23.40;52.30;;;;;;4345582;33;19962;-39
2021/09/03 03:37:02;;;;;;;;;;;23.50;52.30;;;;;;4345593;33;19986;-40
2021/09/03 03:39:28;;;;;;;;;;;23.50;52.30;;;;;;4345454;33;19973;-38
2021/09/03 03:41:54;;;;;;;;;;;23.50;52.20;;;;;;4347427;32;20385;-38
2021/09/03 03:44:21;;;;;;;;;;;23.60;52.10;;;;;;4360183;32;19966;-38
2021/09/03 03:46:47;;;;;;;;;;;23.70;52.10;;;;;;4360117;32;19964;-40
2021/09/03 03:49:13;;;;;;;;;;;23.80;51.90;;;;;;4360162;32;19981;-39
2021/09/03 03:51:39;;;;;;;;;;;23.90;51.70;;;;;;4359746;32;19963;-39
2021/09/03 03:54:05;;;;;;;;;;;23.90;51.60;;;;;;4360107;32;19970;-39
2021/09/03 03:56:32;;;;;;;;;;;23.90;51.40;;;;;;4359914;32;20389;-39
2021/09/03 03:58:58;;;;;;;;;;;24.00;51.50;;;;;;4360149;32;19985;-38
2021/09/03 04:01:24;;;;;;;;;;;24.00;51.50;;;;;;4360163;32;19969;-38
2021/09/03 04:03:50;;;;;;;;;;;24.00;51.50;;;;;;4359828;32;19962;-39
2021/09/03 04:06:17;;;;;;;;;;;24.10;51.50;;;;;;4359774;32;19963;-39
2021/09/03 04:08:43;;;;;;;;;;;24.20;51.40;;;;;;4359594;32;20397;-38
2021/09/03 04:11:09;;;;;;;;;;;24.30;51.30;;;;;;4359663;32;20422;-38
2021/09/03 04:13:35;;;;;;;;;;;24.40;51.10;;;;;;4360070;32;19959;-38
2021/09/03 04:16:01;;;;;;;;;;;24.50;50.80;;;;;;4359557;32;19959;-40
2021/09/03 04:18:27;;;;;;;;;;;24.50;50.60;;;;;;4359789;32;19973;-38
2021/09/03 04:20:53;;;;;;;;;;;24.60;50.40;;;;;;4359175;32;19969;-39
2021/09/03 04:23:20;;;;;;;;;;;24.60;50.30;;;;;;4359489;32;20457;-39
2021/09/03 04:25:49;;;;;;;;;;;24.70;50.40;;;;;;4359484;32;20434;-38
2021/09/03 04:28:15;;;;;;;;;;;24.90;50.30;;;;;;4359244;32;19979;-39
2021/09/03 04:30:41;;;;;;;;;;;25.00;49.90;;;;;;4359168;32;20389;-38
2021/09/03 04:33:07;;;;;;;;;;;25.10;49.60;;;;;;4359143;32;19978;-39
2021/09/03 04:35:34;;;;;;;;;;;25.10;49.40;;;;;;4359250;32;19966;-39
2021/09/03 04:38:00;;;;;;;;;;;25.20;49.50;;;;;;4359767;32;19967;-38
2021/09/03 04:40:26;;;;;;;;;;;25.30;49.30;;;;;;4359142;32;19969;-40
2021/09/03 04:42:53;;;;;;;;;;;25.40;49.30;;;;;;4337173;33;19998;-40
2021/09/03 04:45:19;;;;;;;;;;;25.50;49.20;;;;;;4344447;33;19969;-38
2021/09/03 04:47:45;;;;;;;;;;;25.60;49.00;;;;;;4344390;33;19962;-38
2021/09/03 04:50:12;;;;;;;;;;;25.70;48.80;;;;;;4344470;33;20052;-38
2021/09/03 04:52:38;;;;;;;;;;;25.70;48.60;;;;;;4343865;33;19997;-39
2021/09/03 04:55:04;;;;;;;;;;;25.80;48.60;;;;;;4344092;33;20045;-39
2021/09/03 04:57:31;;;;;;;;;;;25.80;48.60;;;;;;4344377;33;19975;-38
2021/09/03 04:59:57;;;;;;;;;;;25.80;48.40;;;;;;4343962;33;19967;-38
2021/09/03 05:02:23;;;;;;;;;;;25.90;48.30;;;;;;4343978;33;19974;-39
2021/09/03 05:04:49;;;;;;;;;;;25.80;48.20;;;;;;4344056;33;20006;-38
2021/09/03 05:07:15;;;;;;;;;;;25.70;48.20;;;;;;4343975;33;19977;-39
2021/09/03 05:09:42;;;;;;;;;;;25.70;48.30;;;;;;4344273;33;19959;-38
2021/09/03 05:12:08;;;;;;;;;;;25.60;48.30;;;;;;4343657;33;20455;-38
2021/09/03 05:14:34;;;;;;;;;;;25.50;48.40;;;;;;4344066;33;19974;-39
2021/09/03 05:17:00;;;;;;;;;;;25.40;48.50;;;;;;4343956;32;20454;-38
2021/09/03 05:19:26;;;;;;;;;;;25.40;48.50;;;;;;4343735;33;19967;-38
2021/09/03 05:21:53;;;;;;;;;;;25.40;48.50;;;;;;4344243;33;20455;-38
2021/09/03 05:24:19;;;;;;;;;;;25.30;48.40;;;;;;4343846;33;20050;-39
2021/09/03 05:26:45;;;;;;;;;;;25.30;48.50;;;;;;4344136;33;20030;-38
2021/09/03 05:29:12;;;;;;;;;;;25.30;48.60;;;;;;4343606;33;19991;-38
2021/09/03 05:31:38;;;;;;;;;;;25.30;48.60;;;;;;4343747;33;19982;-39
2021/09/03 05:34:04;;;;;;;;;;;25.30;48.50;;;;;;4343484;33;20398;-39
2021/09/03 05:36:30;;;;;;;;;;;25.30;48.40;;;;;;4343540;33;20446;-39
2021/09/03 05:38:56;;;;;;;;;;;25.30;48.40;;;;;;4343712;33;19981;-39
2021/09/03 05:41:22;;;;;;;;;;;25.30;48.30;;;;;;4343682;33;20462;-38
2021/09/03 05:43:48;;;;;;;;;;;25.30;48.20;;;;;;4357751;32;19971;-39
2021/09/03 05:46:15;;;;;;;;;;;25.30;48.20;;;;;;4358750;32;20047;-39
2021/09/03 05:48:41;;;;;;;;;;;25.30;48.40;;;;;;4358619;32;19969;-39
2021/09/03 05:51:07;;;;;;;;;;;25.30;48.30;;;;;;4358497;32;19969;-39
2021/09/03 05:53:33;;;;;;;;;;;25.20;48.30;;;;;;4358486;32;19958;-37
2021/09/03 05:55:59;;;;;;;;;;;25.20;48.10;;;;;;4358356;32;20411;-38
2021/09/03 05:58:26;;;;;;;;;;;25.10;48.00;;;;;;4357625;32;20411;-37
2021/09/03 06:00:54;;;;;;;;;;;25.00;48.10;;;;;;4358367;32;20424;-38
2021/09/03 06:03:20;;;;;;;;;;;25.00;48.10;;;;;;4358293;32;19962;-38
2021/09/03 06:05:47;;;;;;;;;;;24.90;48.10;;;;;;4358079;32;20374;-38
2021/09/03 06:08:13;;;;;;;;;;;24.80;48.10;;;;;;4344157;32;19993;-38
2021/09/03 06:10:39;;;;;;;;;;;24.80;48.30;;;;;;4358111;32;20004;-39
2021/09/03 06:13:05;;;;;;;;;;;24.80;48.50;;;;;;4358437;32;19974;-37
2021/09/03 06:15:31;;;;;;;;;;;24.70;48.60;;;;;;4358615;32;20395;-38
2021/09/03 06:17:58;;;;;;;;;;;24.70;48.70;;;;;;4344305;32;19974;-38
2021/09/03 06:20:24;;;;;;;;;;;24.70;48.70;;;;;;4358358;32;19981;-38
2021/09/03 06:22:50;;;;;;;;;;;24.70;49.00;;;;;;4358350;32;19967;-38
2021/09/03 06:25:17;;;;;;;;;;;24.60;49.90;;;;;;4358169;32;20444;-39
2021/09/03 06:27:43;;;;;;;;;;;24.40;50.20;;;;;;4357841;32;20418;-37
2021/09/03 06:30:10;;;;;;;;;;;24.30;50.60;;;;;;4361249;32;19969;-38
2021/09/03 06:32:36;;;;;;;;;;;24.20;51.10;;;;;;4361152;32;20078;-39
2021/09/03 06:35:04;;;;;;;;;;;24.00;51.60;;;;;;4361375;32;20061;-38
2021/09/03 06:37:30;;;;;;;;;;;23.90;52.10;;;;;;4361210;32;19962;-38
2021/09/03 06:39:57;;;;;;;;;;;23.80;52.10;;;;;;4360723;32;20204;-38
2021/09/03 06:42:23;;;;;;;;;;;23.60;52.30;;;;;;4355702;32;20420;-38
2021/09/03 06:44:50;;;;;;;;;;;23.50;52.50;;;;;;4346286;33;19974;-39
2021/09/03 06:47:17;;;;;;;;;;;23.50;52.50;;;;;;4346032;33;20408;-38
2021/09/03 06:49:44;;;;;;;;;;;23.40;52.50;;;;;;4346175;33;19973;-39
2021/09/03 06:52:10;;;;;;;;;;;23.40;52.70;;;;;;4346372;33;19986;-38
2021/09/03 06:54:37;;;;;;;;;;;23.40;52.80;;;;;;4346336;33;19962;-38
2021/09/03 06:57:03;;;;;;;;;;;23.40;52.80;;;;;;4346310;33;19983;-38
2021/09/03 06:59:30;;;;;;;;;;;23.50;52.70;;;;;;4346228;33;20423;-38
2021/09/03 07:01:56;;;;;;;;;;;23.50;52.80;;;;;;4346161;33;20399;-38
2021/09/03 07:04:23;;;;;;;;;;;23.60;52.70;;;;;;4346044;33;20051;-38
2021/09/03 07:06:52;;;;;;;;;;;23.60;52.70;;;;;;4345805;33;19985;-39
2021/09/03 07:09:19;;;;;;;;;;;23.80;52.50;;;;;;4332312;33;20380;-38
2021/09/03 07:11:45;;;;;;;;;;;23.80;52.40;;;;;;4345420;33;19994;-38
2021/09/03 07:14:11;;;;;;;;;;;23.90;52.10;;;;;;4346292;33;20136;-39
2021/09/03 07:16:37;;;;;;;;;;;24.00;52.00;;;;;;4345874;33;20335;-38
2021/09/03 07:19:04;;;;;;;;;;;24.20;51.90;;;;;;4345794;33;19986;-37
2021/09/03 07:21:31;;;;;;;;;;;24.30;51.40;;;;;;4345552;33;20444;-38
2021/09/03 07:23:58;;;;;;;;;;;24.40;51.30;;;;;;4345886;33;20001;-38
2021/09/03 07:26:25;;;;;;;;;;;24.50;51.10;;;;;;4345911;33;20056;-38
2021/09/03 07:28:51;;;;;;;;;;;24.60;50.90;;;;;;4345849;33;19974;-38
2021/09/03 07:31:17;;;;;;;;;;;24.70;50.70;;;;;;4345206;33;20000;-39
2021/09/03 07:33:43;;;;;;;;;;;24.70;50.60;;;;;;4345457;33;19985;-39
2021/09/03 07:36:10;;;;;;;;;;;24.80;50.70;;;;;;4345898;33;19973;-40
2021/09/03 07:38:36;;;;;;;;;;;24.90;50.40;;;;;;4345690;33;19983;-39
2021/09/03 07:41:02;;;;;;;;;;;24.90;50.00;;;;;;4345014;33;19986;-39
2021/09/03 07:43:29;;;;;;;;;;;24.90;49.80;;;;;;4357185;32;19966;-38
2021/09/03 07:45:56;;;;;;;;;;;24.90;50.00;;;;;;4360311;32;20033;-39
2021/09/03 07:48:23;;;;;;;;;;;25.00;50.00;;;;;;4360216;32;19973;-39
2021/09/03 07:50:49;;;;;;;;;;;25.00;49.90;;;;;;4359932;32;19973;-39
2021/09/03 07:53:16;;;;;;;;;;;25.00;49.80;;;;;;4359715;32;20457;-39
2021/09/03 07:55:42;;;;;;;;;;;25.10;49.60;;;;;;4346572;32;20030;-40
2021/09/03 07:58:08;;;;;;;;;;;25.20;49.80;;;;;;4347015;32;19963;-39
2021/09/03 08:00:35;;;;;;;;;;;25.20;49.60;;;;;;4360505;32;19967;-39
2021/09/03 08:03:01;;;;;;;;;;;25.20;49.30;;;;;;4360347;32;20430;-39
2021/09/03 08:05:28;;;;;;;;;;;25.20;49.40;;;;;;4359686;32;19962;-39
2021/09/03 08:07:54;;;;;;;;;;;25.30;49.10;;;;;;4359892;32;20046;-38
2021/09/03 08:10:20;;;;;;;;;;;25.30;49.50;;;;;;4359993;32;20514;-38
2021/09/03 08:12:47;;;;;;;;;;;25.30;49.10;;;;;;4359778;32;20049;-39
2021/09/03 08:15:13;;;;;;;;;;;25.40;48.70;;;;;;4346591;32;20056;-39
2021/09/03 08:17:39;;;;;;;;;;;25.60;48.40;;;;;;4359691;32;19962;-39
2021/09/03 08:20:07;;;;;;;;;;;25.70;47.90;;;;;;4359464;32;20090;-38
2021/09/03 08:22:34;;;;;;;;;;;25.90;47.50;;;;;;4359444;32;20502;-39
2021/09/03 08:25:00;;;;;;;;;;;26.00;46.90;;;;;;4345353;32;19970;-38
2021/09/03 08:27:26;;;;;;;;;;;26.10;47.00;;;;;;4359708;32;20365;-39
2021/09/03 08:29:52;;;;;;;;;;;26.20;46.90;;;;;;4359108;32;19967;-39
2021/09/03 08:32:18;;;;;;;;;;;26.40;46.70;;;;;;4359699;32;20468;-38
2021/09/03 08:34:45;;;;;;;;;;;26.60;46.60;;;;;;4359568;32;19961;-38
2021/09/03 08:37:11;;;;;;;;;;;26.70;45.90;;;;;;4359437;32;19975;-39
2021/09/03 08:39:37;;;;;;;;;;;26.90;45.70;;;;;;4359717;32;19993;-39
2021/09/03 08:42:03;;;;;;;;;;;27.10;45.50;;;;;;4355706;32;19997;-38
2021/09/03 08:44:30;;;;;;;;;;;27.10;44.00;;;;;;4344473;33;19977;-38
2021/09/03 08:46:57;;;;;;;;;;;27.10;43.80;;;;;;4312476;33;19997;-37
2021/09/03 08:49:23;;;;;;;;;;;27.00;43.90;;;;;;4312513;33;20070;-38
2021/09/03 08:51:49;;;;;;;;;;;27.00;43.90;;;;;;4299545;33;20498;-40
2021/09/03 08:54:15;;;;;;;;;;;26.80;44.00;;;;;;4312502;33;20034;-38
2021/09/03 08:56:42;;;;;;;;;;;26.80;44.10;;;;;;4312769;33;20412;-38
2021/09/03 08:59:08;;;;;;;;;;;26.60;44.30;;;;;;4300753;33;20207;-38
2021/09/03 09:01:34;;;;;;;;;;;26.50;44.60;;;;;;4312602;33;20392;-38
2021/09/03 09:04:13;;;;;;;;;;;26.50;44.80;;;;;;4297256;33;20077;-38
2021/09/03 09:06:41;;;;;;;;;;;26.50;44.80;;;;;;4297894;33;20063;-38
2021/09/03 09:09:08;;;;;;;;;;;26.40;45.00;;;;;;4297750;33;19979;-38
2021/09/03 09:11:35;;;;;;;;;;;26.50;45.20;;;;;;4299399;33;20431;-38
2021/09/03 09:14:07;;;;;;;;;;;26.50;45.00;;;;;;4312097;33;20056;-38
2021/09/03 09:16:34;;;;;;;;;;;26.60;44.80;;;;;;4312042;33;19971;-37
2021/09/03 09:19:04;;;;;;;;;;;26.60;44.70;;;;;;4312355;33;20064;-39
2021/09/03 09:21:31;;;;;;;;;;;26.60;44.60;;;;;;4312211;33;20006;-38
2021/09/03 09:24:11;;;;;;;;;;;26.50;44.70;;;;;;4311839;33;19995;-38
2021/09/03 09:26:51;;;;;;;;;;;26.50;44.80;;;;;;4312480;33;20017;-38
2021/09/03 09:29:22;;;;;;;;;;;26.50;44.60;;;;;;4300199;33;19979;-38
2021/09/03 09:31:53;;;;;;;;;;;26.40;44.50;;;;;;4311707;33;19967;-39
2021/09/03 09:34:30;;;;;;;;;;;26.40;44.60;;;;;;4315280;33;19978;-39
2021/09/03 09:36:57;;;;;;;;;;;26.40;44.40;;;;;;4329161;33;19986;-38
2021/09/03 09:39:24;;;;;;;;;;;26.50;44.50;;;;;;4329364;33;19970;-37
2021/09/03 09:42:01;;;;;;;;;;;26.50;44.50;;;;;;4330758;33;19978;-37
2021/09/03 09:44:28;;;;;;;;;;;26.50;44.30;;;;;;4343864;33;20453;-38
2021/09/03 09:47:05;;;;;;;;;;;26.50;44.20;;;;;;4330341;33;20045;-38
2021/09/03 09:49:31;;;;;;;;;;;26.60;44.10;;;;;;4343941;33;19966;-38
2021/09/03 09:51:57;;;;;;;;;;;26.60;44.90;;;;;;4343768;33;19975;-37
2021/09/03 09:54:24;;;;;;;;;;;26.60;44.10;;;;;;4343555;33;20050;-37
2021/09/03 09:56:54;;;;;;;;;;;26.70;44.20;;;;;;4343778;33;19971;-37
2021/09/03 09:59:22;;;;;;;;;;;26.70;43.60;;;;;;4343334;33;19967;-39
2021/09/03 10:01:50;;;;;;;;;;;26.50;43.20;;;;;;4343330;33;20413;-38
2021/09/03 10:04:18;;;;;;;;;;;26.20;43.40;;;;;;4343578;33;19974;-39
2021/09/03 10:06:46;;;;;;;;;;;25.80;44.00;;;;;;4329752;33;20419;-39
2021/09/03 10:09:22;;;;;;;;;;;25.50;44.80;;;;;;4343335;33;19958;-39
2021/09/03 10:11:51;;;;;;;;;;;25.10;45.40;;;;;;4347182;32;20491;-38
2021/09/03 10:14:20;;;;;;;;;;;24.90;45.90;;;;;;4358642;32;19962;-39
2021/09/03 10:16:47;;;;;;;;;;;24.90;46.20;;;;;;4358628;32;20450;-39
2021/09/03 10:19:18;;;;;;;;;;;24.90;46.10;;;;;;4358368;32;20006;-38
2021/09/03 10:21:44;;;;;;;;;;;24.70;46.00;;;;;;4344562;32;19998;-39
2021/09/03 10:24:14;;;;;;;;;;;24.60;46.60;;;;;;4357989;32;20085;-38
2021/09/03 10:26:43;;;;;;;;;;;24.50;46.90;;;;;;4358243;32;19998;-39
2021/09/03 10:29:27;;;;;;;;;;;24.20;47.20;;;;;;4358107;32;20047;-38
2021/09/03 10:32:10;;;;;;;;;;;24.10;47.60;;;;;;4357908;32;20379;-39
2021/09/03 10:35:00;;;;;;;;;;;24.10;47.90;;;;;;4358294;32;19974;-38
2021/09/03 10:37:33;;;;;;;;;;;24.00;47.60;;;;;;4357482;32;19970;-39
2021/09/03 10:40:09;;;;;;;;;;;24.00;47.60;;;;;;4358225;32;20466;-39
2021/09/03 10:42:55;;;;;;;;;;;24.10;47.40;;;;;;4350964;32;19959;-39
2021/09/03 10:45:23;;;;;;;;;;;24.10;47.00;;;;;;4343242;33;20035;-39
2021/09/03 10:47:49;;;;;;;;;;;24.20;46.80;;;;;;4343429;33;19969;-40
2021/09/03 10:50:24;;;;;;;;;;;24.20;46.40;;;;;;4342741;33;19967;-38
2021/09/03 10:53:02;;;;;;;;;;;24.20;46.10;;;;;;4343221;33;19990;-40
2021/09/03 10:55:48;;;;;;;;;;;24.10;46.10;;;;;;4343098;33;19959;-40
2021/09/03 10:58:36;;;;;;;;;;;24.00;46.30;;;;;;4343024;33;19963;-39
2021/09/03 11:01:11;;;;;;;;;;;23.80;46.60;;;;;;4342916;33;20017;-39
2021/09/03 11:03:41;;;;;;;;;;;23.80;46.70;;;;;;4343061;33;19958;-39
2021/09/03 11:06:08;;;;;;;;;;;23.70;46.90;;;;;;4342907;33;20501;-39
2021/09/03 11:08:41;;;;;;;;;;;23.50;47.00;;;;;;4343044;33;20067;-38
2021/09/03 11:11:38;;;;;;;;;;;23.40;47.10;;;;;;4328912;33;19955;-39
2021/09/03 11:14:06;;;;;;;;;;;23.20;47.60;;;;;;4342903;32;20061;-39
2021/09/03 11:16:37;;;;;;;;;;;23.00;48.50;;;;;;4344685;33;19975;-39
2021/09/03 11:19:08;;;;;;;;;;;22.90;49.00;;;;;;4345961;33;19978;-41
2021/09/03 11:21:56;;;;;;;;;;;22.70;50.20;;;;;;4345550;33;19996;-39
2021/09/03 11:24:24;;;;;;;;;;;22.60;49.80;;;;;;4345793;33;19983;-39
2021/09/03 11:26:51;;;;;;;;;;;22.50;50.10;;;;;;4332070;33;20002;-39
2021/09/03 11:29:20;;;;;;;;;;;22.40;50.30;;;;;;4345647;32;19969;-39
2021/09/03 11:31:54;;;;;;;;;;;22.40;50.20;;;;;;4345554;33;19986;-39
2021/09/03 11:34:59;;;;;;;;;;;22.40;50.10;;;;;;4345893;33;19977;-39
2021/09/03 11:37:31;;;;;;;;;;;22.40;49.40;;;;;;4284113;33;19992;-41
2021/09/03 11:40:01;;;;;;;;;;;22.40;48.80;;;;;;4284132;33;20420;-39
2021/09/03 11:42:31;;;;;;;;;;;22.40;48.60;;;;;;4290165;33;20090;-38
2021/09/03 11:45:07;;;;;;;;;;;22.50;48.60;;;;;;4298910;33;20098;-40
2021/09/03 11:47:37;;;;;;;;;;;22.60;48.30;;;;;;4298775;33;20070;-38
2021/09/03 11:50:20;;;;;;;;;;;22.70;47.60;;;;;;4298784;33;20544;-39
2021/09/03 11:52:47;;;;;;;;;;;22.70;47.40;;;;;;4298828;33;20036;-39
2021/09/03 11:55:15;;;;;;;;;;;22.70;47.70;;;;;;4298700;33;20058;-39
2021/09/03 11:57:53;;;;;;;;;;;22.70;47.80;;;;;;4286812;33;19983;-39
2021/09/03 12:00:21;;;;;;;;;;;22.70;47.70;;;;;;4298671;33;19975;-38
2021/09/03 12:02:48;;;;;;;;;;;22.70;47.70;;;;;;4298943;33;19975;-39
2021/09/03 12:05:14;;;;;;;;;;;22.70;47.80;;;;;;4298750;33;19983;-40
2021/09/03 12:07:41;;;;;;;;;;;22.50;47.50;;;;;;4304726;32;20101;-38
2021/09/03 12:10:08;;;;;;;;;;;22.40;47.70;;;;;;4358130;32;19970;-38
2021/09/03 12:12:34;;;;;;;;;;;22.30;47.90;;;;;;4359589;32;19985;-39
2021/09/03 12:15:01;;;;;;;;;;;22.20;48.30;;;;;;4360118;32;20033;-39
2021/09/03 12:17:41;;;;;;;;;;;22.20;48.50;;;;;;4345778;32;20394;-39
2021/09/03 12:20:18;;;;;;;;;;;22.10;48.60;;;;;;4359320;32;19966;-39
2021/09/03 12:22:55;;;;;;;;;;;22.10;48.80;;;;;;4359955;32;19978;-39
2021/09/03 12:25:34;;;;;;;;;;;22.10;49.20;;;;;;4359447;32;20392;-38
2021/09/03 12:28:07;;;;;;;;;;;22.10;49.00;;;;;;4359804;32;20048;-40
2021/09/03 12:30:33;;;;;;;;;;;22.10;49.00;;;;;;4359995;32;19971;-43
2021/09/03 12:33:29;;;;;;;;;;;22.00;49.10;;;;;;4358926;32;19958;-39
2021/09/03 12:36:02;;;;;;;;;;;22.00;49.20;;;;;;4359504;32;19974;-39
2021/09/03 12:38:31;;;;;;;;;;;22.00;49.10;;;;;;4345948;32;20107;-38
2021/09/03 12:41:08;;;;;;;;;;;22.00;49.20;;;;;;4359374;32;19967;-38
2021/09/03 12:43:34;;;;;;;;;;;21.80;49.30;;;;;;4332718;33;19979;-38
2021/09/03 12:46:06;;;;;;;;;;;21.70;49.30;;;;;;4344533;33;20018;-39
2021/09/03 12:48:32;;;;;;;;;;;21.70;49.70;;;;;;4344521;33;19974;-38
2021/09/03 12:50:58;;;;;;;;;;;21.70;49.50;;;;;;4344702;33;19994;-38
2021/09/03 12:53:25;;;;;;;;;;;21.60;49.70;;;;;;4344412;33;19982;-38
2021/09/03 12:55:52;;;;;;;;;;;21.50;49.80;;;;;;4344128;33;20445;-40
2021/09/03 12:58:18;;;;;;;;;;;21.50;49.70;;;;;;4344299;33;19986;-38
2021/09/03 13:00:44;;;;;;;;;;;21.40;49.70;;;;;;4343934;33;19959;-38
2021/09/03 13:03:11;;;;;;;;;;;21.40;49.80;;;;;;4344201;33;19990;-39
2021/09/03 13:05:38;;;;;;;;;;;21.40;49.70;;;;;;4344094;33;19982;-39
2021/09/03 13:08:05;;;;;;;;;;;21.20;49.70;;;;;;4344153;33;20497;-38
2021/09/03 13:10:31;;;;;;;;;;;21.10;49.90;;;;;;4344002;33;20376;-40
2021/09/03 13:12:57;;;;;;;;;;;21.00;50.10;;;;;;4344102;33;19979;-40
2021/09/03 13:15:23;;;;;;;;;;;20.90;50.40;;;;;;4344302;33;19965;-39
2021/09/03 13:17:50;;;;;;;;;;;20.90;50.50;;;;;;4344087;33;20518;-38
2021/09/03 13:20:16;;;;;;;;;;;20.80;50.60;;;;;;4343933;33;20067;-39
2021/09/03 13:22:42;;;;;;;;;;;20.70;50.80;;;;;;4343934;33;19959;-38
2021/09/03 13:25:09;;;;;;;;;;;20.60;51.00;;;;;;4343885;33;20054;-38
2021/09/03 13:27:35;;;;;;;;;;;20.50;51.40;;;;;;4344051;33;19990;-39
2021/09/03 13:30:01;;;;;;;;;;;20.40;51.70;;;;;;4343694;33;19970;-39
2021/09/03 13:32:28;;;;;;;;;;;20.40;51.90;;;;;;4344254;33;20002;-37
2021/09/03 13:34:54;;;;;;;;;;;20.40;51.90;;;;;;4343744;33;19970;-38
2021/09/03 13:37:20;;;;;;;;;;;20.40;51.90;;;;;;4343404;33;20490;-38
2021/09/03 13:39:46;;;;;;;;;;;20.40;51.80;;;;;;4329271;33;19970;-39
2021/09/03 13:42:13;;;;;;;;;;;20.30;51.90;;;;;;4347814;32;20454;-39
2021/09/03 13:44:39;;;;;;;;;;;20.20;52.10;;;;;;4358511;32;19996;-37
2021/09/03 13:47:06;;;;;;;;;;;20.10;52.40;;;;;;4358340;32;19962;-39
2021/09/03 13:49:32;;;;;;;;;;;20.10;52.50;;;;;;4358549;32;19977;-39
2021/09/03 13:51:58;;;;;;;;;;;20.10;52.50;;;;;;4358338;32;20002;-39
2021/09/03 13:54:24;;;;;;;;;;;20.10;52.30;;;;;;4344436;32;19973;-39
2021/09/03 13:56:51;;;;;;;;;;;20.00;52.50;;;;;;4344367;32;20001;-40
2021/09/03 13:59:18;;;;;;;;;;;20.00;52.50;;;;;;4358555;32;19965;-39
2021/09/03 14:01:44;;;;;;;;;;;20.00;52.40;;;;;;4358246;32;20433;-40
2021/09/03 14:04:10;;;;;;;;;;;20.00;52.50;;;;;;4357852;32;19997;-39
2021/09/03 14:06:36;;;;;;;;;;;20.00;52.20;;;;;;4343999;32;20424;-39
2021/09/03 14:09:03;;;;;;;;;;;20.00;52.30;;;;;;4358384;32;20406;-38
2021/09/03 14:11:30;;;;;;;;;;;19.90;52.50;;;;;;4357951;32;20342;-39
2021/09/03 14:13:56;;;;;;;;;;;19.90;53.00;;;;;;4358057;32;20002;-39
2021/09/03 14:16:22;;;;;;;;;;;19.80;53.00;;;;;;4358505;32;19972;-38
2021/09/03 14:18:48;;;;;;;;;;;19.80;53.00;;;;;;4358315;32;19970;-39
2021/09/03 14:21:14;;;;;;;;;;;19.70;52.90;;;;;;4344341;32;19984;-39